Terminal Aerodrome Forecast
Issued by NWS

Home | Current Version | Previous Version | Text Only | Print | Product List | Glossary On
Versions: 1 2 3 4 5 6 7 8 9 10 11 12 13 14 15
466
FTUS45 KABQ 280536
TAFLVS
TAF
KLVS 280536Z 2806/2906 31011KT P6SM BKN090
     FM281000 24011KT P6SM BKN100
     FM281600 25016G26KT P6SM SCT060 OVC100
     FM281900 30016G26KT P6SM SCT020 BKN035 PROB30 2821/2903 6SM
      -SHRA SCT019 BKN029
     FM290300 02011KT P6SM VCSH SCT010 BKN020=

USA.gov is the U.S. government's official web portal to all federal, state and local government web resources and services.